• Join FlightAware (Why Join?)
  • Login
  • US Flag 
09:35PM EDT


 

Airport Tracker/Info


-or-


 

Live Flight TrackerFlight Track Log ✈ SWA3497 ✈ 23-Apr-2013 ✈ KBWI - KALB

Flight Track Log - Related Links

Times and Time Zones

All times are in EDT time to prevent confusion due to time zone crossing. See the SWA3497 flight status page for this flight to view local times or setup timezone preferences in your user account.

Time Position Orientation Groundspeed Altitude Reporting Facility
EDT Latitude Longitude Course Direction KTS MPH feet Rate Location/Type
04:26PM 39.1667 -76.7500 142° Southeast 227 261 2,900  Level Potomac TRACON
04:27PM 39.1333 -76.7167 142° Southeast 246 283 4,600 2,460 Climbing Potomac TRACON
04:29PM 39.1369 -76.5256 89° East 273 314 9,700 2,640 Climbing Washington Center
04:30PM 39.1419 -76.4106 87° East 293 337 12,100 2,880 Climbing Washington Center
04:31PM 39.1469 -76.2819 87° East 327 376 15,500 3,000 Climbing Washington Center
04:32PM 39.1600 -76.1644 82° East 361 415 18,200 2,700 Climbing Washington Center
04:33PM 39.1753 -76.0306 82° East 371 427 20,900 2,580 Climbing Washington Center
04:34PM 39.1964 -75.8917 79° East 377 434 23,400 1,980 Climbing Washington Center
04:35PM 39.2653 -75.7872 50° Northeast 368 423 24,900 720 Climbing Washington Center
04:36PM 39.3467 -75.6828 45° Northeast 393 452 24,900  Level Washington Center
04:37PM 39.4303 -75.5728 45° Northeast 406 467 24,900  Level Washington Center
04:38PM 39.5133 -75.4678 44° Northeast 412 474 25,000  Climbing Washington Center
04:41PM 39.7203 -75.1889 46° Northeast 411 473 24,900  Descending New York Center
04:42PM 39.8017 -75.0697 48° Northeast 416 479 25,000  Climbing New York Center
04:43PM 39.8808 -74.9558 48° Northeast 428 493 25,000 -480 Level New York Center
04:44PM 39.9642 -74.8389 47° Northeast 428 493 24,100 -1,020 Descending New York Center
04:45PM 40.0431 -74.7242 48° Northeast 428 493 23,000 -600 Descending New York Center
04:46PM 40.1108 -74.6275 47° Northeast 416 479 23,000  Level New York Center
04:47PM 40.1919 -74.5097 48° Northeast 402 463 23,000 -60 Level New York Center
04:48PM 40.2739 -74.4217 39° Northeast 402 463 22,900 -60 Descending New York Center
04:49PM 40.3600 -74.3283 40° Northeast 402 463 22,900  Level New York Center
04:50PM 40.4464 -74.2319 40° Northeast 402 463 22,900  Level New York Center
04:51PM 40.5367 -74.1381 38° Northeast 402 463 22,900  Level New York Center
04:52PM 40.7042 -73.9594 39° Northeast 425 489 22,900  Level Boston Center
04:53PM 40.7972 -73.8547 40° Northeast 431 496 22,900  Level Boston Center
04:55PM 40.8861 -73.7469 42° Northeast 431 496 22,900  Level Boston Center
04:56PM 41.0081 -73.6447 32° Northeast 436 502 22,900  Level Boston Center
04:57PM 41.1267 -73.6744 349° North 396 456 22,900 -300 Level Boston Center
04:58PM 41.2433 -73.6547 North 410 472 22,400 -1,380 Descending Boston Center
04:59PM 41.3583 -73.6375 North 415 478 20,200 -2,160 Descending Boston Center
05:00PM 41.4667 -73.6231 North 393 452 18,100 -1,140 Descending Boston Center
05:01PM 41.5836 -73.6058 North 388 447 18,000 -240 Descending Boston Center
05:02PM 41.6775 -73.5908 North 382 440 17,700 -1,440 Descending Boston Center
05:03PM 41.7925 -73.5733 North 382 440 15,200 -2,280 Descending Boston Center
05:04PM 41.8864 -73.5583 North 376 433 13,200 -2,220 Descending Boston Center
05:04PM 41.9511 -73.5511 North 360 414 11,800 -2,220 Descending Boston Center
05:05PM 41.9928 -73.5433 North 358 412 11,000 -600 Descending Boston Center
05:06PM 42.0889 -73.5311 North 350 403 11,000  Level Boston Center
05:07PM 42.1639 -73.5325 359° North 345 397 11,000  Level Boston Center
05:08PM 42.2739 -73.5681 347° North 340 391 11,000 -120 Level Boston Center
05:08PM 42.3008 -73.5769 346° North 326 375 10,900 -900 Descending Boston Center
05:09PM 42.3528 -73.5892 350° North 314 361 10,100 -1,320 Descending Boston Center
05:09PM 42.3800 -73.5981 346° North 273 314 9,600 -1,500 Descending Boston Center
05:10PM 42.4297 -73.6158 345° North 283 326 8,600 -1,620 Descending Boston Center
05:10PM 42.4547 -73.6247 345° North 281 323 8,000 -1,620 Descending Boston Center
05:11PM 42.5067 -73.6397 348° North 278 320 7,000 -1,200 Descending Boston Center
05:12PM 42.5669 -73.6608 346° North 278 320 6,000 -1,260 Descending Boston Center
05:12PM 42.6022 -73.6756 343° North 282 325 5,500 -1,620 Descending Boston Center
05:13PM 42.6561 -73.6878 351° North 278 320 4,400 -1,380 Descending Boston Center
05:13PM 42.6789 -73.6939 349° North 272 313 4,100 -420 Descending Boston Center
05:14PM 42.7289 -73.7006 354° North 270 311 4,000 -300 Descending Boston Center
05:15PM 42.7892 -73.7106 353° North 233 268 3,600 -480 Descending Boston Center
05:16PM 42.8328 -73.7283 343° North 211 243 3,100 -960 Descending Boston Center
05:17PM 42.8322 -73.7906 269° West 128 147 1,500 -900 Descending Boston Center
05:18PM 42.7944 -73.8094 200° South 140 161 1,100 -600 Descending Boston Center
05:19PM 42.7569 -73.8058 176° South 137 158 300 -840 Descending Boston Center